createdAt,value
2018-07-19T05:01:58.570Z,95332.30
2018-07-19T05:07:01.911Z,95338.44
2018-07-19T05:12:05.256Z,95341.36
2018-07-19T05:17:08.595Z,95343.46
2018-07-19T05:22:11.946Z,95339.66
2018-07-19T05:27:15.869Z,95347.25
2018-07-19T05:32:19.218Z,95358.09
2018-07-19T05:37:22.569Z,95350.18
2018-07-19T05:42:25.972Z,95361.98
2018-07-19T05:47:29.266Z,95369.09
2018-07-19T05:52:32.625Z,95375.25
2018-07-19T05:57:35.974Z,95367.25
2018-07-19T06:02:39.315Z,95362.42
2018-07-19T06:07:42.654Z,95358.59
2018-07-19T06:12:46.760Z,95357.67
2018-07-19T06:17:50.103Z,95356.28
2018-07-19T06:22:54.206Z,95355.23
2018-07-19T06:27:57.564Z,95361.38
2018-07-19T06:33:00.903Z,95368.48
2018-07-19T06:38:04.246Z,95363.38
2018-07-19T06:43:07.605Z,95362.48
2018-07-19T06:48:10.951Z,95364.28
2018-07-19T06:53:14.292Z,95366.13
2018-07-19T06:58:17.618Z,95362.36
2018-07-19T07:03:20.979Z,95361.55
2018-07-19T07:08:24.327Z,95360.86
2018-07-19T07:13:27.664Z,95357.13
2018-07-19T07:18:31.758Z,95357.22
2018-07-19T07:23:35.097Z,95358.21
2018-07-19T07:28:38.446Z,95357.86
2018-07-19T07:33:41.786Z,95357.36
2018-07-19T07:38:45.148Z,95356.31
2018-07-19T07:43:48.482Z,95361.60
2018-07-19T07:48:51.843Z,95361.77
2018-07-19T07:53:55.199Z,95358.92
2018-07-19T07:58:58.550Z,95364.62
2018-07-19T08:04:01.890Z,95365.13
2018-07-19T08:09:05.252Z,95363.43
2018-07-19T08:14:08.606Z,95376.16
2018-07-19T08:19:11.958Z,95372.72
2018-07-19T08:24:15.351Z,95369.67
2018-07-19T08:29:18.698Z,95365.57
2018-07-19T08:34:22.059Z,95368.98
2018-07-19T08:39:25.420Z,95363.97
2018-07-19T08:44:28.783Z,95368.05
2018-07-19T08:49:32.122Z,95364.64
2018-07-19T08:54:36.256Z,95362.88
2018-07-19T08:59:40.370Z,95362.39
2018-07-19T09:04:43.725Z,95363.02
2018-07-19T09:09:51.429Z,95360.98
2018-07-19T09:14:56.979Z,95375.13
2018-07-19T09:20:06.018Z,95363.99
2018-07-19T09:25:10.125Z,95368.47
2018-07-19T09:30:13.482Z,95365.45
2018-07-19T09:35:16.851Z,95368.15
2018-07-19T09:40:20.199Z,95369.35
2018-07-19T09:45:24.294Z,95359.44
2018-07-19T09:50:27.639Z,95363.61
2018-07-19T09:55:31.752Z,95358.85
2018-07-19T10:00:35.114Z,95359.78
2018-07-19T10:05:38.467Z,95361.52
2018-07-19T10:10:41.805Z,95360.97
2018-07-19T10:15:45.150Z,95359.97
2018-07-19T10:20:49.413Z,95357.09
2018-07-19T10:25:53.806Z,95358.42
2018-07-19T10:30:57.158Z,95355.51
2018-07-19T10:36:00.499Z,95361.36
2018-07-19T10:41:03.846Z,95356.91
2018-07-19T10:46:07.229Z,95351.06
2018-07-19T10:51:10.534Z,95353.34
2018-07-19T10:56:13.860Z,95353.79
2018-07-19T11:01:17.338Z,95347.53
2018-07-19T11:06:20.865Z,95342.69
2018-07-19T11:11:24.387Z,95338.30
2018-07-19T11:16:27.756Z,95343.30
2018-07-19T11:21:31.202Z,95330.38
2018-07-19T11:26:34.580Z,95326.52
2018-07-19T11:31:38.838Z,95331.45
2018-07-19T11:36:42.479Z,95324.77
2018-07-19T11:41:45.840Z,95322.83
2018-07-19T11:46:49.962Z,95319.41
2018-07-19T11:51:54.075Z,95316.25
2018-07-19T11:56:57.520Z,95314.77
2018-07-19T12:02:00.878Z,95305.61
2018-07-19T12:07:04.311Z,95317.83
2018-07-19T12:12:07.659Z,95304.48
2018-07-19T12:17:11.014Z,95302.51
2018-07-19T12:22:14.340Z,95301.92
2018-07-19T12:27:17.680Z,95301.27
2018-07-19T12:32:21.014Z,95294.39
2018-07-19T12:37:25.099Z,95294.98
2018-07-19T12:42:28.429Z,95289.93
2018-07-19T12:47:31.758Z,95293.33
2018-07-19T12:52:35.114Z,95288.89
2018-07-19T12:57:38.445Z,95290.55
2018-07-19T13:02:41.772Z,95279.86
2018-07-19T13:07:45.145Z,95275.23
2018-07-19T13:12:48.472Z,95284.06
2018-07-19T13:17:51.804Z,95277.17
2018-07-19T13:22:55.127Z,95269.52
2018-07-19T13:27:58.454Z,95262.33
2018-07-19T13:33:01.802Z,95261.86
2018-07-19T13:38:05.146Z,95265.50
2018-07-19T13:43:08.471Z,95272.03
2018-07-19T13:48:11.795Z,95253.36
2018-07-19T13:58:43.070Z,95236.22
2018-07-19T14:03:46.399Z,95239.15
2018-07-19T14:08:49.735Z,95236.16
2018-07-19T14:13:53.161Z,95234.41
2018-07-19T14:18:57.280Z,95234.05
2018-07-19T14:24:00.646Z,95228.48
2018-07-19T14:29:03.979Z,95222.78
2018-07-19T14:34:07.318Z,95223.30
2018-07-19T14:39:10.655Z,95220.48
2018-07-19T14:44:14.021Z,95219.09
2018-07-19T14:49:17.353Z,95216.33
2018-07-19T14:54:21.236Z,95208.39
2018-07-19T14:59:24.725Z,95209.98
2018-07-19T15:04:28.076Z,95202.91
2018-07-19T15:09:31.402Z,95196.16
2018-07-19T15:14:34.739Z,95199.55
2018-07-19T15:19:38.062Z,95190.81
2018-07-19T15:24:41.426Z,95187.99
2018-07-19T15:29:44.953Z,95178.61
2018-07-19T15:34:48.317Z,95176.20
2018-07-19T15:39:52.411Z,95167.56
2018-07-19T15:44:55.790Z,95162.48
2018-07-19T15:49:59.164Z,95163.20
2018-07-19T15:55:03.689Z,95167.70
2018-07-19T16:00:07.035Z,95166.27
2018-07-19T16:05:11.122Z,95168.34
2018-07-19T16:10:14.459Z,95163.71
2018-07-19T16:15:17.784Z,95154.64
2018-07-19T16:20:21.878Z,95148.65
2018-07-19T16:25:25.214Z,95154.01
2018-07-19T16:30:28.538Z,95147.38
2018-07-19T16:35:32.639Z,95149.09
2018-07-19T16:40:35.975Z,95142.02
2018-07-19T16:45:40.071Z,95137.05
2018-07-19T16:50:43.397Z,95140.41
2018-07-19T16:55:46.733Z,95135.18
2018-07-19T17:00:50.822Z,95133.31
2018-07-19T17:05:54.138Z,95126.29
2018-07-19T17:10:57.477Z,95127.62
2018-07-19T17:16:00.818Z,95125.61
2018-07-19T17:21:04.146Z,95122.98
2018-07-19T17:26:08.243Z,95123.78
2018-07-19T17:31:11.589Z,95127.31
2018-07-19T17:36:15.691Z,95132.94
2018-07-19T17:41:19.023Z,95131.97
2018-07-19T17:46:23.117Z,95133.39
2018-07-19T17:51:26.442Z,95130.31
2018-07-19T17:56:29.813Z,95136.16
2018-07-19T18:01:33.878Z,95136.27
2018-07-19T18:06:37.590Z,95136.59
2018-07-19T18:11:41.107Z,95137.34
2018-07-19T18:16:44.622Z,95137.71
2018-07-19T18:21:47.975Z,95133.90
2018-07-19T18:26:52.304Z,95135.52
2018-07-19T18:31:55.606Z,95133.92
2018-07-19T18:36:59.034Z,95135.33
2018-07-19T18:42:02.385Z,95143.89
2018-07-19T18:47:07.610Z,95147.59
2018-07-19T18:52:11.714Z,95147.26
2018-07-19T18:57:15.060Z,95147.34
2018-07-19T19:02:18.403Z,95143.23
2018-07-19T19:07:21.738Z,95144.30
2018-07-19T19:12:25.088Z,95148.80
2018-07-19T19:17:28.430Z,95153.53
2018-07-19T19:22:31.771Z,95163.97
2018-07-19T19:27:35.117Z,95167.33
2018-07-19T19:32:38.475Z,95163.55
2018-07-19T19:37:41.799Z,95168.23
2018-07-19T19:42:45.316Z,95174.70
2018-07-19T19:47:48.651Z,95178.81
2018-07-19T19:52:52.009Z,95178.65
2018-07-19T19:57:56.484Z,95177.28
2018-07-19T20:03:01.009Z,95179.37
2018-07-19T20:08:04.855Z,95178.30
2018-07-19T20:13:08.433Z,95176.66
2018-07-19T20:18:11.812Z,95174.72
2018-07-19T20:23:15.257Z,95171.84
2018-07-19T20:28:18.627Z,95178.70
2018-07-19T20:33:22.074Z,95181.02
2018-07-19T20:38:25.462Z,95182.81
2018-07-19T20:43:28.979Z,95181.32
2018-07-19T20:48:33.256Z,95186.33
2018-07-19T20:53:36.769Z,95191.17
2018-07-19T20:58:40.261Z,95191.66
2018-07-19T21:03:45.239Z,95193.71
2018-07-19T21:08:48.833Z,95192.27
2018-07-19T21:13:52.354Z,95196.65
2018-07-19T21:18:56.470Z,95194.56
2018-07-19T21:23:59.817Z,95200.23
2018-07-19T21:29:03.142Z,95198.90
2018-07-19T21:34:06.475Z,95206.25
2018-07-19T21:39:09.886Z,95207.86
2018-07-19T21:44:13.230Z,95206.28
2018-07-19T21:49:16.727Z,95204.19
2018-07-19T21:54:20.063Z,95214.35
2018-07-19T21:59:23.390Z,95206.02
2018-07-19T22:04:26.734Z,95213.59
2018-07-19T22:09:45.267Z,95214.38
2018-07-19T22:14:49.367Z,95215.95
2018-07-19T22:19:52.871Z,95211.11
2018-07-19T22:24:56.193Z,95211.20
2018-07-19T22:30:09.412Z,95209.67
